Time;durP1;ratioP1;P1;durP2;ratioP2;P2;SDS_P1;SDS_P2;PMS_P1;PMS_P2;Temp;Humidity;BMP_temperature;BMP_pressure;BME280_temperature;BME280_humidity;BME280_pressure;Samples;Min_cycle;Max_cycle;Signal;HPM_P1;HPM_P2
2021/09/04 00:01:56;;;;;;;12.48;6.72;;;;;;;;;;5071812;28;20052;-62
2021/09/04 00:04:42;;;;;;;13.07;7.55;;;;;;;;;;5071657;28;20048;-62
2021/09/04 00:07:28;;;;;;;12.68;7.18;;;;;;;;;;5071717;28;20418;-61
2021/09/04 00:10:15;;;;;;;13.50;7.90;;;;;;;;;;5071835;28;20060;-61
2021/09/04 00:13:01;;;;;;;12.32;8.35;;;;;;;;;;5071865;28;20052;-62
2021/09/04 00:15:49;;;;;;;12.23;8.85;;;;;;;;;;5071669;28;20257;-61
2021/09/04 00:18:35;;;;;;;10.63;8.60;;;;;;;;;;5071683;28;20456;-61
2021/09/04 00:21:21;;;;;;;13.77;9.10;;;;;;;;;;5071631;28;20518;-61
2021/09/04 00:24:06;;;;;;;13.50;8.95;;;;;;;;;;5071421;28;20509;-62
2021/09/04 00:26:51;;;;;;;12.57;9.18;;;;;;;;;;5071720;28;20044;-62
2021/09/04 00:29:37;;;;;;;14.40;9.57;;;;;;;;;;5071759;28;20053;-63
2021/09/04 00:32:22;;;;;;;12.52;10.30;;;;;;;;;;5071625;28;20060;-62
2021/09/04 00:35:07;;;;;;;16.70;10.30;;;;;;;;;;5071291;28;20410;-62
2021/09/04 00:37:52;;;;;;;9.93;8.80;;;;;;;;;;5071725;28;20082;-61
2021/09/04 00:40:38;;;;;;;11.23;8.55;;;;;;;;;;5071889;28;20053;-61
2021/09/04 00:43:23;;;;;;;12.07;8.93;;;;;;;;;;5071437;28;20048;-61
2021/09/04 00:46:09;;;;;;;11.80;8.82;;;;;;;;;;5071611;28;20045;-62
2021/09/04 00:48:54;;;;;;;15.27;9.43;;;;;;;;;;5071354;28;20053;-62
2021/09/04 00:51:39;;;;;;;9.60;8.30;;;;;;;;;;5074389;28;20056;-62
2021/09/04 00:54:25;;;;;;;16.83;10.25;;;;;;;;;;5074832;28;20049;-62
2021/09/04 00:57:10;;;;;;;15.95;12.85;;;;;;;;;;5075219;28;20094;-62
2021/09/04 00:59:55;;;;;;;14.25;10.77;;;;;;;;;;5074965;28;20511;-62
2021/09/04 01:02:41;;;;;;;13.88;10.77;;;;;;;;;;5060229;28;20056;-62
2021/09/04 01:05:27;;;;;;;13.48;11.38;;;;;;;;;;5074802;28;20057;-62
2021/09/04 01:08:13;;;;;;;16.45;12.00;;;;;;;;;;5074870;28;20056;-62
2021/09/04 01:11:00;;;;;;;13.23;10.82;;;;;;;;;;5059988;28;20048;-61
2021/09/04 01:13:46;;;;;;;16.95;12.40;;;;;;;;;;5074690;28;20119;-62
2021/09/04 01:16:37;;;;;;;14.90;12.05;;;;;;;;;;5074651;28;20057;-61
2021/09/04 01:19:23;;;;;;;16.92;12.60;;;;;;;;;;5074854;28;20049;-61
2021/09/04 01:22:08;;;;;;;16.77;11.95;;;;;;;;;;5074813;28;20052;-62
2021/09/04 01:24:54;;;;;;;19.13;12.27;;;;;;;;;;5074340;28;20418;-62
2021/09/04 01:27:39;;;;;;;16.13;11.60;;;;;;;;;;5074485;28;20515;-61
2021/09/04 01:30:24;;;;;;;14.65;11.90;;;;;;;;;;5074561;28;20483;-62
2021/09/04 01:33:11;;;;;;;19.60;11.57;;;;;;;;;;5074570;28;20044;-62
2021/09/04 01:35:56;;;;;;;16.48;11.60;;;;;;;;;;5074194;28;20049;-62
2021/09/04 01:38:41;;;;;;;13.63;9.77;;;;;;;;;;5074589;28;20052;-62
2021/09/04 01:41:27;;;;;;;18.88;11.65;;;;;;;;;;5074295;28;20414;-61
2021/09/04 01:44:12;;;;;;;16.00;11.43;;;;;;;;;;5073870;28;20101;-62
2021/09/04 01:46:57;;;;;;;10.90;9.80;;;;;;;;;;5074251;28;20060;-61
2021/09/04 01:49:42;;;;;;;11.27;9.75;;;;;;;;;;5074151;28;20052;-62
2021/09/04 01:52:28;;;;;;;13.90;10.35;;;;;;;;;;5074017;28;20469;-61
2021/09/04 01:55:15;;;;;;;13.48;9.88;;;;;;;;;;5073714;28;20044;-62
2021/09/04 01:58:01;;;;;;;13.35;10.52;;;;;;;;;;5074062;28;20131;-61
2021/09/04 02:00:46;;;;;;;13.00;9.95;;;;;;;;;;5073492;28;20052;-61
2021/09/04 02:03:31;;;;;;;21.02;10.18;;;;;;;;;;5073823;28;20414;-62
2021/09/04 02:06:17;;;;;;;17.38;10.30;;;;;;;;;;5074006;28;20048;-62
2021/09/04 02:09:02;;;;;;;12.65;8.75;;;;;;;;;;5073623;28;20506;-61
2021/09/04 02:11:47;;;;;;;9.95;7.57;;;;;;;;;;5073834;28;20052;-61
2021/09/04 02:14:33;;;;;;;13.38;8.57;;;;;;;;;;5073220;28;20502;-61
2021/09/04 02:17:19;;;;;;;13.93;8.70;;;;;;;;;;5073619;28;20115;-62
2021/09/04 02:20:05;;;;;;;14.98;9.38;;;;;;;;;;5073786;28;20052;-62
2021/09/04 02:22:50;;;;;;;11.55;7.93;;;;;;;;;;5073626;28;20052;-61
2021/09/04 02:25:36;;;;;;;15.30;9.60;;;;;;;;;;5073260;28;20098;-62
2021/09/04 02:28:22;;;;;;;12.38;9.52;;;;;;;;;;5073462;28;20418;-62
2021/09/04 02:31:08;;;;;;;16.65;9.82;;;;;;;;;;5073363;28;20111;-62
2021/09/04 02:33:54;;;;;;;13.60;9.80;;;;;;;;;;5073050;28;20056;-61
2021/09/04 02:36:40;;;;;;;13.27;9.73;;;;;;;;;;5072449;28;20491;-61
2021/09/04 02:39:25;;;;;;;14.07;10.23;;;;;;;;;;5072219;28;20057;-62
2021/09/04 02:42:10;;;;;;;15.63;10.32;;;;;;;;;;5073121;28;20052;-61
2021/09/04 02:44:55;;;;;;;16.35;10.98;;;;;;;;;;5072901;28;20123;-62
2021/09/04 02:47:41;;;;;;;15.27;10.40;;;;;;;;;;5073086;28;20057;-61
2021/09/04 02:50:26;;;;;;;16.85;10.90;;;;;;;;;;5072747;28;20570;-61
2021/09/04 02:53:12;;;;;;;15.55;10.73;;;;;;;;;;5073061;28;20048;-62
2021/09/04 02:55:58;;;;;;;14.95;10.63;;;;;;;;;;5099835;22;20044;-63
2021/09/04 02:58:43;;;;;;;14.30;11.80;;;;;;;;;;5093101;28;20439;-64
2021/09/04 03:01:29;;;;;;;12.90;11.20;;;;;;;;;;5093010;28;20056;-63
2021/09/04 03:04:17;;;;;;;13.35;11.63;;;;;;;;;;5092827;28;20398;-63
2021/09/04 03:07:03;;;;;;;16.42;11.98;;;;;;;;;;5073105;28;20071;-64
2021/09/04 03:09:49;;;;;;;14.48;12.38;;;;;;;;;;5072717;28;20059;-63
2021/09/04 03:12:39;;;;;;;16.15;12.48;;;;;;;;;;5072698;28;20498;-63
2021/09/04 03:15:24;;;;;;;18.42;12.68;;;;;;;;;;5072531;28;20080;-64
2021/09/04 03:18:10;;;;;;;16.85;12.07;;;;;;;;;;5072392;28;20145;-63
2021/09/04 03:20:56;;;;;;;18.00;12.25;;;;;;;;;;5072574;28;20059;-63
2021/09/04 03:23:41;;;;;;;19.15;11.70;;;;;;;;;;5072576;28;20063;-64
2021/09/04 03:26:26;;;;;;;15.85;12.88;;;;;;;;;;5072169;28;20052;-63
2021/09/04 03:29:11;;;;;;;15.23;11.65;;;;;;;;;;5072865;28;20137;-63
2021/09/04 03:31:57;;;;;;;14.88;11.82;;;;;;;;;;5073014;28;20045;-64
2021/09/04 03:34:44;;;;;;;11.38;10.05;;;;;;;;;;5072014;28;20040;-64
2021/09/04 03:37:30;;;;;;;15.88;10.15;;;;;;;;;;5072339;28;20049;-63
2021/09/04 03:40:16;;;;;;;11.82;9.95;;;;;;;;;;5072175;28;20056;-64
2021/09/04 03:43:01;;;;;;;14.32;9.95;;;;;;;;;;5071988;28;20056;-62
2021/09/04 03:45:49;;;;;;;14.43;9.50;;;;;;;;;;5071715;28;20053;-63
2021/09/04 03:48:38;;;;;;;12.48;9.00;;;;;;;;;;5071978;28;20127;-64
2021/09/04 03:51:25;;;;;;;12.43;9.98;;;;;;;;;;5072013;28;20060;-63
2021/09/04 03:54:10;;;;;;;9.38;8.25;;;;;;;;;;5073654;28;20449;-65
2021/09/04 03:56:56;;;;;;;10.65;8.80;;;;;;;;;;5080502;28;20049;-64
2021/09/04 03:59:41;;;;;;;11.40;9.25;;;;;;;;;;5079879;28;20123;-64
2021/09/04 04:02:27;;;;;;;10.30;7.88;;;;;;;;;;5079273;28;20079;-64
2021/09/04 04:05:14;;;;;;;10.10;7.78;;;;;;;;;;5073185;28;20057;-64
2021/09/04 04:07:59;;;;;;;10.80;8.05;;;;;;;;;;5071778;28;20057;-63
2021/09/04 04:10:45;;;;;;;11.85;8.38;;;;;;;;;;5071970;28;20123;-64
2021/09/04 04:13:32;;;;;;;8.50;6.85;;;;;;;;;;5071586;28;20052;-64
2021/09/04 04:16:18;;;;;;;10.30;7.25;;;;;;;;;;5071626;28;20052;-63
2021/09/04 04:19:04;;;;;;;10.77;7.28;;;;;;;;;;5071864;28;20068;-63
2021/09/04 04:21:49;;;;;;;10.20;6.78;;;;;;;;;;5071641;28;20498;-62
2021/09/04 04:24:35;;;;;;;10.35;6.55;;;;;;;;;;5073176;28;20056;-63
2021/09/04 04:27:21;;;;;;;9.50;7.45;;;;;;;;;;5075844;28;20414;-63
2021/09/04 04:30:06;;;;;;;13.70;7.40;;;;;;;;;;5075663;28;20056;-62
2021/09/04 04:32:51;;;;;;;9.50;7.28;;;;;;;;;;5075538;28;20049;-62
2021/09/04 04:35:38;;;;;;;9.00;7.25;;;;;;;;;;5082523;28;20044;-62
2021/09/04 04:38:24;;;;;;;9.13;7.03;;;;;;;;;;5080578;28;20052;-63
2021/09/04 04:41:09;;;;;;;10.40;6.82;;;;;;;;;;5075457;28;20057;-63
2021/09/04 04:43:55;;;;;;;10.20;7.25;;;;;;;;;;5075284;28;20064;-62
2021/09/04 04:46:40;;;;;;;10.02;6.32;;;;;;;;;;5075398;28;20056;-63
2021/09/04 04:49:26;;;;;;;9.88;7.05;;;;;;;;;;5075168;28;20497;-62
2021/09/04 04:52:11;;;;;;;9.88;7.00;;;;;;;;;;5075479;28;20048;-63
2021/09/04 04:54:57;;;;;;;11.10;6.53;;;;;;;;;;5074785;28;20052;-63
2021/09/04 04:57:42;;;;;;;11.15;6.70;;;;;;;;;;5075187;28;20074;-63
2021/09/04 05:00:28;;;;;;;13.57;7.53;;;;;;;;;;5075252;28;20119;-63
2021/09/04 05:03:14;;;;;;;8.57;6.20;;;;;;;;;;5075209;28;20056;-62
2021/09/04 05:06:00;;;;;;;11.88;6.45;;;;;;;;;;5074960;28;20558;-62
2021/09/04 05:08:45;;;;;;;12.52;7.03;;;;;;;;;;5075168;28;20592;-63
2021/09/04 05:11:30;;;;;;;12.18;7.45;;;;;;;;;;5074956;28;20053;-63
2021/09/04 05:14:15;;;;;;;9.10;7.47;;;;;;;;;;5074615;28;20060;-63
2021/09/04 05:17:02;;;;;;;12.48;6.82;;;;;;;;;;5075196;28;20052;-62
2021/09/04 05:19:48;;;;;;;8.07;6.75;;;;;;;;;;5074815;28;20052;-62
2021/09/04 05:22:33;;;;;;;6.95;6.28;;;;;;;;;;5081929;28;20056;-63
2021/09/04 05:25:19;;;;;;;10.40;5.65;;;;;;;;;;5085923;28;20053;-64
2021/09/04 05:28:05;;;;;;;11.10;6.07;;;;;;;;;;5086243;28;20048;-63
2021/09/04 05:30:50;;;;;;;9.88;5.78;;;;;;;;;;5067101;28;20052;-64
2021/09/04 05:33:35;;;;;;;13.77;6.30;;;;;;;;;;5054345;28;20406;-64
2021/09/04 05:36:21;;;;;;;6.32;4.15;;;;;;;;;;5054490;28;20049;-64
2021/09/04 05:39:06;;;;;;;10.10;4.72;;;;;;;;;;5054760;28;20068;-63
2021/09/04 05:41:51;;;;;;;6.68;4.47;;;;;;;;;;5054234;28;20049;-64
2021/09/04 05:44:37;;;;;;;10.02;4.97;;;;;;;;;;5054495;28;20049;-64
2021/09/04 05:47:22;;;;;;;9.82;4.70;;;;;;;;;;5055133;28;20052;-63
2021/09/04 05:50:08;;;;;;;9.45;4.03;;;;;;;;;;5054281;28;20084;-63
2021/09/04 05:52:52;;;;;;;9.70;4.10;;;;;;;;;;5055301;28;20507;-64
2021/09/04 05:55:39;;;;;;;5.10;3.65;;;;;;;;;;5065631;28;20049;-64
2021/09/04 05:58:24;;;;;;;8.95;4.82;;;;;;;;;;5067149;28;20057;-62
2021/09/04 06:01:10;;;;;;;8.50;4.50;;;;;;;;;;5053465;28;20450;-63
2021/09/04 06:03:55;;;;;;;8.82;4.10;;;;;;;;;;5053768;28;20400;-63
2021/09/04 06:06:40;;;;;;;6.60;3.90;;;;;;;;;;5053695;28;20427;-64
2021/09/04 06:09:26;;;;;;;9.98;4.35;;;;;;;;;;5054065;28;20052;-63
2021/09/04 06:12:11;;;;;;;6.72;3.95;;;;;;;;;;5053984;28;20049;-62
2021/09/04 06:14:56;;;;;;;9.48;4.45;;;;;;;;;;5053580;28;20056;-62
2021/09/04 06:17:42;;;;;;;8.60;4.07;;;;;;;;;;5053973;28;20053;-63
2021/09/04 06:20:27;;;;;;;9.15;3.78;;;;;;;;;;5055009;28;20053;-64
2021/09/04 06:23:13;;;;;;;6.38;3.88;;;;;;;;;;5044066;28;20057;-63
2021/09/04 06:25:57;;;;;;;9.60;3.92;;;;;;;;;;5047976;28;20061;-63
2021/09/04 06:28:43;;;;;;;9.40;3.65;;;;;;;;;;5073478;28;20056;-63
2021/09/04 06:31:28;;;;;;;7.18;3.78;;;;;;;;;;5073022;28;20582;-64
2021/09/04 06:34:13;;;;;;;9.98;4.45;;;;;;;;;;5073864;28;20407;-64
2021/09/04 06:36:59;;;;;;;7.55;3.92;;;;;;;;;;5073751;28;20123;-63
2021/09/04 06:39:44;;;;;;;5.95;4.22;;;;;;;;;;5066245;28;20388;-63
2021/09/04 06:42:29;;;;;;;6.85;3.75;;;;;;;;;;5053040;28;20414;-62
2021/09/04 06:45:15;;;;;;;8.95;3.97;;;;;;;;;;5052697;28;20123;-63
2021/09/04 06:48:00;;;;;;;7.32;3.45;;;;;;;;;;5054710;28;20045;-63
2021/09/04 06:50:45;;;;;;;7.10;3.05;;;;;;;;;;5072543;28;20480;-62
2021/09/04 06:53:31;;;;;;;11.18;4.07;;;;;;;;;;5072232;28;20049;-63
2021/09/04 06:56:16;;;;;;;7.10;3.58;;;;;;;;;;5058331;28;20057;-62
2021/09/04 06:59:01;;;;;;;7.18;3.33;;;;;;;;;;5052878;28;20056;-62
2021/09/04 07:01:47;;;;;;;5.45;3.75;;;;;;;;;;5052172;28;20057;-62
2021/09/04 07:04:32;;;;;;;8.23;3.47;;;;;;;;;;5052619;28;20053;-63
2021/09/04 07:07:17;;;;;;;6.15;3.85;;;;;;;;;;5051523;28;20048;-64
2021/09/04 07:10:03;;;;;;;6.75;3.50;;;;;;;;;;5051717;28;20120;-64
2021/09/04 07:12:48;;;;;;;6.78;3.75;;;;;;;;;;5068372;28;20087;-64
2021/09/04 07:15:33;;;;;;;6.55;3.47;;;;;;;;;;5072226;28;20080;-63
2021/09/04 07:18:20;;;;;;;6.13;3.67;;;;;;;;;;5072819;28;20053;-63
2021/09/04 07:21:05;;;;;;;11.10;4.50;;;;;;;;;;5072643;28;20053;-64
2021/09/04 07:23:50;;;;;;;9.90;4.53;;;;;;;;;;5072030;28;20056;-63
2021/09/04 07:26:36;;;;;;;7.03;3.97;;;;;;;;;;5069211;28;20052;-62
2021/09/04 07:29:21;;;;;;;7.53;4.45;;;;;;;;;;5072265;28;20514;-64
2021/09/04 07:32:07;;;;;;;8.00;4.63;;;;;;;;;;5071410;28;20052;-63
2021/09/04 07:34:52;;;;;;;6.78;4.60;;;;;;;;;;5071614;28;20499;-64
2021/09/04 07:37:37;;;;;;;6.70;4.10;;;;;;;;;;5072244;28;20147;-63
2021/09/04 07:40:23;;;;;;;8.80;4.55;;;;;;;;;;5072110;28;20517;-63
2021/09/04 07:43:08;;;;;;;7.32;5.05;;;;;;;;;;5075691;28;20052;-64
2021/09/04 07:45:54;;;;;;;8.48;4.85;;;;;;;;;;5076022;28;20048;-64
2021/09/04 07:48:39;;;;;;;6.70;5.03;;;;;;;;;;5067710;28;20053;-64
2021/09/04 07:51:24;;;;;;;9.73;5.50;;;;;;;;;;5073098;28;20048;-63
2021/09/04 07:54:10;;;;;;;6.57;4.07;;;;;;;;;;5071618;28;20123;-63
2021/09/04 07:56:55;;;;;;;3.72;3.17;;;;;;;;;;5073647;28;20416;-64
2021/09/04 07:59:40;;;;;;;8.00;3.85;;;;;;;;;;5081099;28;20123;-63
2021/09/04 08:02:26;;;;;;;7.03;3.53;;;;;;;;;;5081106;28;20442;-63
2021/09/04 08:05:11;;;;;;;4.85;3.40;;;;;;;;;;5071604;28;20048;-62
2021/09/04 08:07:56;;;;;;;7.82;3.22;;;;;;;;;;5072032;28;20056;-64
2021/09/04 08:10:43;;;;;;;7.60;3.65;;;;;;;;;;5071824;28;20119;-63
2021/09/04 08:13:28;;;;;;;8.98;3.92;;;;;;;;;;5071571;28;20123;-63
2021/09/04 08:16:14;;;;;;;8.93;4.25;;;;;;;;;;5071857;28;20102;-63
2021/09/04 08:18:59;;;;;;;6.32;3.55;;;;;;;;;;5071816;28;20045;-62
2021/09/04 08:21:44;;;;;;;5.47;3.50;;;;;;;;;;5071713;28;20119;-62
2021/09/04 08:24:31;;;;;;;7.57;3.63;;;;;;;;;;5071475;28;20057;-63
2021/09/04 08:27:16;;;;;;;10.52;3.72;;;;;;;;;;5078656;28;20061;-64
2021/09/04 08:30:02;;;;;;;5.45;2.70;;;;;;;;;;5080963;28;20052;-63
2021/09/04 08:32:47;;;;;;;4.13;2.70;;;;;;;;;;5077512;28;20044;-64
2021/09/04 08:35:33;;;;;;;8.10;4.05;;;;;;;;;;5075607;28;20053;-64
2021/09/04 08:38:18;;;;;;;6.25;2.65;;;;;;;;;;5071595;28;20049;-64
2021/09/04 08:41:03;;;;;;;5.03;2.55;;;;;;;;;;5071478;28;20056;-63
2021/09/04 08:43:48;;;;;;;7.47;2.88;;;;;;;;;;5070435;28;20053;-64
2021/09/04 08:46:34;;;;;;;5.65;2.28;;;;;;;;;;5071518;28;20057;-64
2021/09/04 08:49:19;;;;;;;13.00;3.08;;;;;;;;;;5071428;28;20052;-63
2021/09/04 08:52:07;;;;;;;4.63;2.03;;;;;;;;;;5072332;28;20048;-63
2021/09/04 08:55:18;;;;;;;3.85;2.25;;;;;;;;;;5076796;22;20084;31
2021/09/04 08:58:03;;;;;;;5.25;2.50;;;;;;;;;;5029737;28;20057;-62
2021/09/04 09:00:48;;;;;;;4.97;2.15;;;;;;;;;;5031306;28;20499;-62
2021/09/04 09:03:33;;;;;;;3.45;1.73;;;;;;;;;;5031178;28;20050;-62
2021/09/04 09:06:26;;;;;;;6.15;2.58;;;;;;;;;;5043346;28;20506;-62
2021/09/04 09:09:15;;;;;;;2.78;1.90;;;;;;;;;;5051132;28;20506;-62
2021/09/04 09:12:00;;;;;;;5.63;2.38;;;;;;;;;;5053064;28;20053;-62
2021/09/04 09:14:55;;;;;;;6.60;2.45;;;;;;;;;;5053817;28;20057;-61
2021/09/04 09:17:40;;;;;;;4.93;2.80;;;;;;;;;;5054882;28;20049;-62
2021/09/04 09:20:26;;;;;;;4.45;2.10;;;;;;;;;;5049416;28;20053;-62
2021/09/04 09:23:14;;;;;;;7.82;2.65;;;;;;;;;;5037510;28;20149;-62
2021/09/04 09:26:09;;;;;;;5.78;2.45;;;;;;;;;;5044718;28;20044;-62
2021/09/04 09:28:54;;;;;;;3.13;2.08;;;;;;;;;;5034588;28;20093;-62
2021/09/04 09:31:39;;;;;;;8.27;3.42;;;;;;;;;;5034512;28;20046;-62
2021/09/04 09:34:25;;;;;;;5.88;2.95;;;;;;;;;;5034398;28;20053;-62
2021/09/04 09:37:10;;;;;;;6.78;2.40;;;;;;;;;;5034285;28;20523;-62
2021/09/04 09:39:55;;;;;;;4.20;2.75;;;;;;;;;;5034608;28;20057;-62
2021/09/04 09:42:47;;;;;;;7.28;2.67;;;;;;;;;;5019703;28;20054;-62
2021/09/04 09:45:51;;;;;;;4.57;2.13;;;;;;;;;;5035129;28;20132;-62
2021/09/04 09:48:37;;;;;;;3.95;2.55;;;;;;;;;;5034224;28;20057;-62
2021/09/04 09:51:22;;;;;;;3.30;2.30;;;;;;;;;;5037276;28;20421;-62
2021/09/04 09:54:07;;;;;;;7.47;2.85;;;;;;;;;;5054022;28;20053;-62
2021/09/04 09:56:53;;;;;;;5.22;2.25;;;;;;;;;;5052787;28;20045;-62
2021/09/04 09:59:39;;;;;;;5.72;3.10;;;;;;;;;;5053429;28;20519;-62
2021/09/04 10:02:24;;;;;;;5.10;3.10;;;;;;;;;;5054230;28;20099;-62
2021/09/04 10:05:10;;;;;;;4.07;2.35;;;;;;;;;;5060372;28;20049;-62
2021/09/04 10:07:57;;;;;;;6.15;3.03;;;;;;;;;;5073923;28;20091;-62
2021/09/04 10:10:43;;;;;;;4.30;2.65;;;;;;;;;;5073884;28;20052;-62
2021/09/04 10:13:28;;;;;;;4.80;2.83;;;;;;;;;;5073400;28;20115;-62
2021/09/04 10:16:14;;;;;;;5.97;3.25;;;;;;;;;;5073547;28;20480;-62
2021/09/04 10:18:59;;;;;;;5.97;3.00;;;;;;;;;;5058497;28;20053;-62
2021/09/04 10:21:44;;;;;;;5.82;2.65;;;;;;;;;;5057684;28;20123;-62
2021/09/04 10:24:44;;;;;;;5.20;2.50;;;;;;;;;;5032822;28;20053;-62
2021/09/04 10:27:31;;;;;;;3.65;2.70;;;;;;;;;;5032903;28;20053;-62
2021/09/04 10:30:27;;;;;;;4.70;2.60;;;;;;;;;;5042630;28;20060;-62
2021/09/04 10:33:13;;;;;;;5.25;2.95;;;;;;;;;;5052625;28;20499;-62
2021/09/04 10:35:59;;;;;;;4.80;3.00;;;;;;;;;;5052732;28;20052;-63
2021/09/04 10:38:44;;;;;;;5.88;2.83;;;;;;;;;;5052107;28;20041;-62
2021/09/04 10:41:33;;;;;;;5.20;3.33;;;;;;;;;;5053171;28;20522;-62
2021/09/04 10:44:24;;;;;;;5.40;3.42;;;;;;;;;;5052619;28;20056;-61
2021/09/04 10:47:10;;;;;;;4.45;3.33;;;;;;;;;;5053011;28;20049;-62
2021/09/04 10:49:58;;;;;;;5.82;3.40;;;;;;;;;;5037663;28;20052;-62
2021/09/04 10:52:53;;;;;;;6.75;3.50;;;;;;;;;;5053058;28;20053;-62
2021/09/04 10:55:39;;;;;;;3.65;3.10;;;;;;;;;;5052274;28;20053;-62
2021/09/04 10:58:24;;;;;;;12.27;4.25;;;;;;;;;;5052363;28;20056;-62
2021/09/04 11:01:10;;;;;;;5.75;3.13;;;;;;;;;;5052682;28;20045;-63
2021/09/04 11:03:56;;;;;;;3.45;3.00;;;;;;;;;;5052374;28;20053;-62
2021/09/04 11:06:43;;;;;;;8.75;4.07;;;;;;;;;;5052598;28;20045;-62
2021/09/04 11:09:49;;;;;;;7.28;3.50;;;;;;;;;;5052866;28;20419;-62
2021/09/04 11:12:34;;;;;;;9.88;3.30;;;;;;;;;;5052608;28;20056;-62
2021/09/04 11:15:24;;;;;;;7.25;3.05;;;;;;;;;;5031643;28;20061;-61
2021/09/04 11:18:09;;;;;;;8.93;3.80;;;;;;;;;;5032010;28;20057;-62
2021/09/04 11:20:55;;;;;;;6.53;3.50;;;;;;;;;;5047873;28;20057;-62
2021/09/04 11:23:40;;;;;;;6.40;3.28;;;;;;;;;;5050865;28;20044;-62
2021/09/04 11:26:25;;;;;;;7.35;3.22;;;;;;;;;;5050915;28;20045;-63
2021/09/04 11:29:10;;;;;;;5.60;3.80;;;;;;;;;;5051948;28;20048;-63
2021/09/04 11:31:56;;;;;;;9.82;4.68;;;;;;;;;;5052122;28;20049;-64
2021/09/04 11:34:42;;;;;;;6.10;3.97;;;;;;;;;;5051160;28;20099;-63
2021/09/04 11:37:27;;;;;;;5.57;4.03;;;;;;;;;;5052286;28;20085;-63
2021/09/04 11:40:14;;;;;;;6.03;4.57;;;;;;;;;;5051964;28;20049;-63
2021/09/04 11:42:59;;;;;;;8.38;4.20;;;;;;;;;;5052256;28;20052;-63
2021/09/04 11:45:44;;;;;;;6.53;4.50;;;;;;;;;;5051792;28;20053;-64
2021/09/04 11:48:29;;;;;;;8.45;4.93;;;;;;;;;;5051892;28;20431;-63
2021/09/04 11:51:14;;;;;;;6.88;4.45;;;;;;;;;;5033102;28;20484;-63
2021/09/04 11:54:03;;;;;;;6.88;3.67;;;;;;;;;;5031688;28;20053;-63
2021/09/04 11:56:48;;;;;;;10.23;4.70;;;;;;;;;;5030413;28;20511;-63
2021/09/04 11:59:33;;;;;;;6.45;4.15;;;;;;;;;;5032159;28;20128;-63
2021/09/04 12:02:19;;;;;;;8.48;4.35;;;;;;;;;;5031987;28;20057;-63
2021/09/04 12:05:06;;;;;;;11.63;4.82;;;;;;;;;;5030725;28;20053;-63
2021/09/04 12:07:53;;;;;;;10.38;5.13;;;;;;;;;;5032122;28;20053;-63
2021/09/04 12:10:39;;;;;;;7.35;4.80;;;;;;;;;;5031729;28;20523;-63
2021/09/04 12:13:25;;;;;;;7.65;5.10;;;;;;;;;;5031673;28;20053;-63
2021/09/04 12:16:14;;;;;;;12.38;5.63;;;;;;;;;;5031922;28;20057;-63
2021/09/04 12:19:16;;;;;;;8.60;5.57;;;;;;;;;;5031749;28;20124;-63
2021/09/04 12:22:01;;;;;;;9.40;5.47;;;;;;;;;;5031687;28;20512;-63
2021/09/04 12:24:47;;;;;;;8.93;5.30;;;;;;;;;;5031519;28;20284;-63
2021/09/04 12:27:39;;;;;;;8.77;5.75;;;;;;;;;;5031768;28;20053;-63
2021/09/04 12:30:24;;;;;;;9.75;6.45;;;;;;;;;;5031864;28;20061;-63
2021/09/04 12:33:10;;;;;;;11.18;5.55;;;;;;;;;;5030847;28;20050;-63
2021/09/04 12:36:02;;;;;;;11.93;6.30;;;;;;;;;;5031577;28;20049;-63
2021/09/04 12:38:47;;;;;;;9.93;5.85;;;;;;;;;;5031991;28;20049;-63
2021/09/04 12:41:33;;;;;;;9.68;6.45;;;;;;;;;;5031646;28;20567;-63
2021/09/04 12:44:18;;;;;;;9.93;6.38;;;;;;;;;;5031310;28;20449;-63
2021/09/04 12:47:04;;;;;;;11.25;6.07;;;;;;;;;;5033899;28;20057;-64
2021/09/04 12:49:50;;;;;;;12.02;6.35;;;;;;;;;;5035641;28;20054;-64
2021/09/04 12:52:36;;;;;;;11.20;6.80;;;;;;;;;;5035496;28;20049;-64
2021/09/04 12:55:21;;;;;;;7.90;6.10;;;;;;;;;;5034938;28;20518;-64
2021/09/04 12:58:06;;;;;;;10.73;6.72;;;;;;;;;;5035576;28;20053;-65
2021/09/04 13:01:05;;;;;;;11.13;6.90;;;;;;;;;;5035464;28;20050;-64
2021/09/04 13:03:50;;;;;;;13.07;7.13;;;;;;;;;;5035451;28;20049;-65
2021/09/04 13:06:35;;;;;;;9.50;6.10;;;;;;;;;;5035272;28;20128;-64
2021/09/04 13:09:20;;;;;;;12.70;6.80;;;;;;;;;;5035281;28;20057;-64
2021/09/04 13:12:06;;;;;;;11.60;6.40;;;;;;;;;;5035245;28;20049;-64
2021/09/04 13:14:51;;;;;;;11.73;6.55;;;;;;;;;;5034914;28;20083;-64
2021/09/04 13:17:36;;;;;;;8.20;6.30;;;;;;;;;;5035052;28;20045;-64
2021/09/04 13:20:22;;;;;;;10.25;6.50;;;;;;;;;;5034145;28;20415;-64
2021/09/04 13:23:07;;;;;;;13.68;7.15;;;;;;;;;;5034913;28;20573;-64
2021/09/04 13:25:52;;;;;;;11.48;6.88;;;;;;;;;;5035215;28;20049;-64
2021/09/04 13:28:38;;;;;;;11.38;5.82;;;;;;;;;;5034938;28;20420;-65
2021/09/04 13:31:23;;;;;;;11.23;6.65;;;;;;;;;;5034789;28;20474;-65
2021/09/04 13:34:08;;;;;;;10.27;6.20;;;;;;;;;;5034352;28;20511;-64
2021/09/04 13:36:54;;;;;;;9.75;5.80;;;;;;;;;;5034416;28;20081;-64
2021/09/04 13:39:39;;;;;;;11.20;6.57;;;;;;;;;;5034517;28;20515;-64
2021/09/04 13:42:28;;;;;;;12.40;7.20;;;;;;;;;;5034647;28;20057;-64
2021/09/04 13:45:13;;;;;;;10.00;6.32;;;;;;;;;;5034228;28;20053;-65
2021/09/04 13:47:59;;;;;;;12.75;6.60;;;;;;;;;;5034612;28;20132;-65
2021/09/04 13:50:44;;;;;;;12.63;5.95;;;;;;;;;;5034471;28;20076;-65
2021/09/04 13:53:29;;;;;;;10.80;6.95;;;;;;;;;;5034161;28;20392;-64
2021/09/04 13:56:14;;;;;;;8.98;5.85;;;;;;;;;;5034152;28;20050;-63
2021/09/04 13:59:00;;;;;;;10.85;6.80;;;;;;;;;;5034031;28;20049;-64
2021/09/04 14:01:45;;;;;;;9.85;6.57;;;;;;;;;;5033919;28;20511;-63
2021/09/04 14:04:30;;;;;;;7.53;6.13;;;;;;;;;;5033988;28;20053;-63
2021/09/04 14:07:16;;;;;;;10.00;6.65;;;;;;;;;;5033856;28;20551;-63
2021/09/04 14:10:01;;;;;;;10.18;6.00;;;;;;;;;;5033834;28;20053;-64
2021/09/04 14:12:46;;;;;;;10.07;6.03;;;;;;;;;;5033961;28;20053;-63
2021/09/04 14:15:31;;;;;;;8.80;5.55;;;;;;;;;;5033539;28;20053;-64
2021/09/04 14:18:17;;;;;;;9.05;5.93;;;;;;;;;;5033633;28;20508;-64
2021/09/04 14:21:02;;;;;;;7.75;5.63;;;;;;;;;;5033911;28;20124;-64
2021/09/04 14:23:48;;;;;;;10.68;5.57;;;;;;;;;;5033429;28;20049;-63
2021/09/04 14:26:33;;;;;;;9.18;5.55;;;;;;;;;;5033402;28;20408;-64
2021/09/04 14:29:18;;;;;;;7.80;4.32;;;;;;;;;;5033708;28;20049;-63
2021/09/04 14:32:04;;;;;;;9.52;4.90;;;;;;;;;;5032544;28;20088;-64
2021/09/04 14:34:49;;;;;;;6.57;4.80;;;;;;;;;;5032239;28;20050;-63
2021/09/04 14:37:34;;;;;;;8.07;5.20;;;;;;;;;;5033609;28;20057;-63
2021/09/04 14:40:19;;;;;;;9.30;5.05;;;;;;;;;;5033459;28;20049;-63
2021/09/04 14:43:05;;;;;;;6.95;4.32;;;;;;;;;;5033364;28;20053;-63
2021/09/04 14:45:50;;;;;;;9.98;5.32;;;;;;;;;;5033123;28;20049;-64
2021/09/04 14:48:35;;;;;;;6.50;4.00;;;;;;;;;;5033190;28;20054;-63
2021/09/04 14:51:21;;;;;;;6.95;4.63;;;;;;;;;;5033050;28;20499;-64
2021/09/04 14:54:06;;;;;;;8.38;4.50;;;;;;;;;;5033036;28;20045;-64
2021/09/04 14:56:51;;;;;;;7.32;4.75;;;;;;;;;;5033264;28;20462;-63
2021/09/04 14:59:36;;;;;;;5.45;3.90;;;;;;;;;;5032996;28;20124;-64
2021/09/04 15:02:22;;;;;;;11.25;4.50;;;;;;;;;;5033138;28;20088;-63
2021/09/04 15:05:08;;;;;;;9.30;4.20;;;;;;;;;;5032728;28;20049;-64
2021/09/04 15:07:53;;;;;;;8.77;4.40;;;;;;;;;;5032875;28;20053;-64
2021/09/04 15:10:39;;;;;;;8.15;5.03;;;;;;;;;;5032196;28;20061;-63
2021/09/04 15:13:24;;;;;;;6.25;4.22;;;;;;;;;;5032598;28;20397;-63
2021/09/04 15:16:09;;;;;;;7.75;4.45;;;;;;;;;;5032762;28;20061;-63
2021/09/04 15:18:55;;;;;;;7.18;4.20;;;;;;;;;;5032548;28;20053;-63
2021/09/04 15:21:40;;;;;;;7.00;3.92;;;;;;;;;;5032805;28;20104;-63
2021/09/04 15:24:26;;;;;;;9.60;4.40;;;;;;;;;;5032356;28;20049;-63
2021/09/04 15:27:12;;;;;;;6.65;4.55;;;;;;;;;;5032329;28;20519;-63
2021/09/04 15:29:57;;;;;;;7.88;3.55;;;;;;;;;;5031645;28;20116;-63
2021/09/04 15:32:42;;;;;;;7.80;4.30;;;;;;;;;;5032436;28;20053;-63
2021/09/04 15:35:27;;;;;;;7.70;4.72;;;;;;;;;;5031985;28;20049;-63
2021/09/04 15:38:13;;;;;;;9.23;4.88;;;;;;;;;;5032502;28;20045;-63
2021/09/04 15:40:58;;;;;;;6.43;4.13;;;;;;;;;;5032476;28;20049;-63
2021/09/04 15:43:43;;;;;;;7.93;4.15;;;;;;;;;;5031905;28;20467;-63
2021/09/04 15:46:28;;;;;;;8.32;5.13;;;;;;;;;;5032309;28;20128;-63
2021/09/04 15:49:14;;;;;;;5.80;4.00;;;;;;;;;;5032298;28;20415;-63
2021/09/04 15:51:59;;;;;;;8.07;4.55;;;;;;;;;;5031993;28;20053;-63
2021/09/04 15:54:44;;;;;;;8.15;4.35;;;;;;;;;;5032116;28;20077;-63
2021/09/04 15:57:30;;;;;;;6.07;3.67;;;;;;;;;;5032104;28;20049;-63
2021/09/04 16:00:15;;;;;;;10.20;4.38;;;;;;;;;;5032060;28;20050;-63
2021/09/04 16:03:01;;;;;;;7.45;3.92;;;;;;;;;;5032193;28;20089;-63
2021/09/04 16:05:46;;;;;;;8.85;5.05;;;;;;;;;;5031746;28;20054;-63
2021/09/04 16:08:32;;;;;;;6.90;4.38;;;;;;;;;;5031994;28;20459;-63
2021/09/04 16:11:17;;;;;;;5.05;4.50;;;;;;;;;;5031746;28;20521;-63
2021/09/04 16:14:02;;;;;;;10.02;4.47;;;;;;;;;;5031758;28;20049;-63
2021/09/04 16:16:48;;;;;;;7.22;4.43;;;;;;;;;;5031788;28;20120;-64
2021/09/04 16:19:33;;;;;;;6.53;4.03;;;;;;;;;;5031813;28;20559;-63
2021/09/04 16:22:18;;;;;;;6.47;4.60;;;;;;;;;;5036070;28;20057;-63
2021/09/04 16:25:04;;;;;;;5.90;4.28;;;;;;;;;;5035561;28;20507;-63
2021/09/04 16:27:49;;;;;;;10.25;4.40;;;;;;;;;;5035985;28;20108;-63